Terminal Aerodrome Forecast
Issued by NWS Rapid City, SD

Home | Current Version | Previous Version | Text Only | Print | Product List | Glossary On
Versions: 1 2 3 4 5 6 7 8 9 10 11 12 13 14 15 16 17 18 19 20 21 22 23
551
FTUS43 KUNR 311824 AAC
TAFRAP
TAF AMD
KRAP 311824Z 3118/0118 17015G25KT P6SM SKC
     FM010200 15009KT P6SM SKC
     FM011500 18015KT P6SM SKC=

USA.gov is the U.S. government's official web portal to all federal, state and local government web resources and services.